Time;durP1;ratioP1;P1;durP2;ratioP2;P2;SDS_P1;SDS_P2;PMS_P1;PMS_P2;Temp;Humidity;BMP_temperature;BMP_pressure;BME280_temperature;BME280_humidity;BME280_pressure;Samples;Min_cycle;Max_cycle;Signal;HPM_P1;HPM_P2
2020/12/03 00:00:53;;;;;;;27.00;14.10;;;6.20;99.90;;;;;;5083520;28;21270;-78
2020/12/03 00:03:34;;;;;;;32.37;14.90;;;6.30;99.90;;;;;;5084039;28;20642;-78
2020/12/03 00:06:19;;;;;;;30.20;14.73;;;6.20;99.90;;;;;;5082075;28;20653;-78
2020/12/03 00:08:51;;;;;;;31.93;15.37;;;6.30;99.90;;;;;;5087657;28;20217;-78
2020/12/03 00:11:19;;;;;;;32.20;15.37;;;6.30;99.90;;;;;;5084183;28;20203;-78
2020/12/03 00:13:46;;;;;;;30.83;15.00;;;6.30;99.90;;;;;;5085116;28;20711;-79
2020/12/03 00:16:12;;;;;;;28.33;15.17;;;6.30;99.90;;;;;;5065352;28;20198;-78
2020/12/03 00:18:39;;;;;;;27.23;13.30;;;6.20;99.90;;;;;;5088047;28;20234;-78
2020/12/03 00:21:10;;;;;;;27.03;14.17;;;6.30;99.90;;;;;;5084831;28;20198;-79
2020/12/03 00:23:38;;;;;;;25.97;13.33;;;6.20;99.90;;;;;;5078989;28;20286;-79
2020/12/03 00:26:06;;;;;;;29.43;13.93;;;6.20;99.90;;;;;;5082358;28;20248;-78
2020/12/03 00:28:35;;;;;;;26.60;13.40;;;6.20;99.90;;;;;;5075011;28;20207;-79
2020/12/03 00:31:03;;;;;;;26.90;13.57;;;6.20;99.90;;;;;;5084428;28;20198;-79
2020/12/03 00:33:29;;;;;;;24.20;12.33;;;6.20;99.90;;;;;;5084353;28;20241;-79
2020/12/03 00:35:56;;;;;;;26.00;13.40;;;6.20;99.90;;;;;;5072499;28;20280;-79
2020/12/03 00:38:25;;;;;;;22.23;12.43;;;6.20;99.90;;;;;;5086716;28;20290;-78
2020/12/03 00:40:52;;;;;;;26.73;12.60;;;6.20;99.90;;;;;;5078680;28;20630;-78
2020/12/03 00:43:19;;;;;;;24.73;12.67;;;6.20;99.90;;;;;;5092010;28;21162;-79
2020/12/03 00:45:47;;;;;;;27.10;12.17;;;6.20;99.90;;;;;;5069714;28;20244;-78
2020/12/03 00:48:16;;;;;;;22.83;11.70;;;6.10;99.90;;;;;;5075180;28;20237;-78
2020/12/03 00:50:43;;;;;;;22.30;11.73;;;6.10;99.90;;;;;;5071738;28;20206;-78
2020/12/03 00:53:09;;;;;;;31.17;12.50;;;6.10;99.90;;;;;;5061226;28;20239;-78
2020/12/03 00:55:36;;;;;;;21.10;12.10;;;6.10;99.90;;;;;;5075102;28;20287;-78
2020/12/03 00:58:04;;;;;;;26.63;13.00;;;6.00;99.90;;;;;;5044127;28;20279;-78
2020/12/03 01:00:30;;;;;;;23.33;12.37;;;6.00;99.90;;;;;;5057952;28;20210;-78
2020/12/03 01:02:56;;;;;;;21.57;10.83;;;6.00;99.90;;;;;;5044876;28;20194;-78
2020/12/03 01:05:23;;;;;;;26.90;11.70;;;6.10;99.90;;;;;;5060663;28;20210;-78
2020/12/03 01:07:49;;;;;;;24.83;11.97;;;6.00;99.90;;;;;;5067366;28;20565;-77
2020/12/03 01:10:26;;;;;;;28.00;12.00;;;6.10;99.90;;;;;;5041896;28;20262;-77
2020/12/03 01:12:53;;;;;;;25.10;11.93;;;6.00;99.90;;;;;;5087094;28;20754;-77
2020/12/03 01:15:20;;;;;;;23.47;11.70;;;6.00;99.90;;;;;;5055745;28;20206;-77
2020/12/03 01:17:48;;;;;;;23.17;11.87;;;6.00;99.90;;;;;;5073971;28;20203;-78
2020/12/03 01:20:18;;;;;;;23.43;11.90;;;6.00;99.90;;;;;;5053090;28;20199;-77
2020/12/03 01:22:45;;;;;;;24.77;11.63;;;6.10;99.90;;;;;;5079085;28;20677;-79
2020/12/03 01:25:12;;;;;;;21.27;11.30;;;6.10;99.90;;;;;;5041281;28;20883;-78
2020/12/03 01:27:39;;;;;;;21.60;11.27;;;6.00;99.90;;;;;;5057297;28;20591;-78
2020/12/03 01:30:08;;;;;;;23.67;11.37;;;5.90;99.90;;;;;;5054992;28;20234;-78
2020/12/03 01:32:35;;;;;;;19.27;10.80;;;6.00;99.90;;;;;;5069061;28;20214;-78
2020/12/03 01:35:05;;;;;;;19.63;11.67;;;6.00;99.90;;;;;;5071975;28;20268;-78
2020/12/03 01:37:32;;;;;;;18.50;10.20;;;5.90;99.90;;;;;;5075219;28;20211;-78
2020/12/03 01:39:58;;;;;;;20.80;10.87;;;5.90;99.90;;;;;;5071493;28;20230;-78
2020/12/03 01:42:25;;;;;;;23.57;12.10;;;5.90;99.90;;;;;;5048762;28;20275;-78
2020/12/03 01:44:53;;;;;;;19.67;11.30;;;6.00;99.90;;;;;;5078333;28;20202;-78
2020/12/03 01:47:30;;;;;;;21.67;10.80;;;5.90;99.90;;;;;;5074228;28;20201;-79
2020/12/03 01:49:57;;;;;;;19.87;11.37;;;6.00;99.90;;;;;;5072981;28;20206;-78
2020/12/03 01:52:24;;;;;;;20.93;11.53;;;6.00;99.90;;;;;;5076797;28;20198;-78
2020/12/03 01:54:52;;;;;;;22.77;11.03;;;5.90;99.90;;;;;;5058752;28;20226;-77
2020/12/03 01:57:49;;;;;;;21.93;10.47;;;5.90;99.90;;;;;;5063838;28;20202;-79
2020/12/03 02:00:18;;;;;;;22.90;11.50;;;5.90;99.90;;;;;;5090087;28;20210;-78
2020/12/03 02:02:50;;;;;;;26.10;11.53;;;5.80;99.90;;;;;;5069722;28;20629;-77
2020/12/03 02:05:21;;;;;;;19.33;10.87;;;5.80;99.90;;;;;;5071059;28;20811;-78
2020/12/03 02:07:49;;;;;;;20.27;10.87;;;5.80;99.90;;;;;;5069699;28;20204;-78
2020/12/03 02:10:19;;;;;;;26.17;11.43;;;5.80;99.90;;;;;;5070868;28;20206;-78
2020/12/03 02:12:45;;;;;;;20.90;11.30;;;6.00;99.90;;;;;;5062596;28;20283;-78
2020/12/03 02:15:12;;;;;;;22.57;11.73;;;6.10;99.90;;;;;;5078109;28;20210;-78
2020/12/03 02:17:39;;;;;;;21.50;11.10;;;5.90;99.90;;;;;;5071411;28;20229;-78
2020/12/03 02:20:11;;;;;;;20.07;10.20;;;5.90;99.90;;;;;;5087758;28;20274;-78
2020/12/03 02:22:38;;;;;;;22.27;10.33;;;5.90;99.90;;;;;;5086681;28;20271;-79
2020/12/03 02:25:06;;;;;;;17.43;9.63;;;5.90;99.90;;;;;;5086132;28;20203;-78
2020/12/03 02:27:32;;;;;;;19.77;10.40;;;5.90;99.90;;;;;;5073143;28;20283;-79
2020/12/03 02:29:59;;;;;;;21.00;10.90;;;5.90;99.90;;;;;;5070278;28;20206;-78
2020/12/03 02:32:25;;;;;;;22.77;10.80;;;5.90;99.90;;;;;;5082562;28;20221;-78
2020/12/03 02:34:52;;;;;;;17.13;10.03;;;5.90;99.90;;;;;;5071674;28;20226;-78
2020/12/03 02:37:18;;;;;;;20.03;10.53;;;5.90;99.90;;;;;;5049782;28;20671;-78
2020/12/03 02:39:44;;;;;;;19.47;8.53;;;5.90;99.90;;;;;;5078086;28;20548;-77
2020/12/03 02:42:14;;;;;;;23.30;9.50;;;5.80;99.90;;;;;;5073316;28;20221;-78
2020/12/03 02:44:46;;;;;;;18.10;9.67;;;5.90;99.90;;;;;;5088233;28;20760;-78
2020/12/03 02:47:15;;;;;;;20.43;9.80;;;5.90;99.90;;;;;;5085103;28;20229;-78
2020/12/03 02:49:42;;;;;;;20.77;10.47;;;5.90;99.90;;;;;;5072197;28;20253;-78
2020/12/03 02:52:13;;;;;;;17.83;8.67;;;5.90;99.90;;;;;;5082434;28;20579;-78
2020/12/03 02:54:41;;;;;;;14.43;7.93;;;5.90;99.90;;;;;;5064857;28;20275;-78
2020/12/03 02:57:08;;;;;;;21.00;10.00;;;5.80;99.90;;;;;;5052426;28;20503;-77
2020/12/03 02:59:36;;;;;;;20.70;9.00;;;5.80;99.90;;;;;;5064920;28;20260;-78
2020/12/03 03:02:02;;;;;;;17.90;8.60;;;5.80;99.90;;;;;;5086502;28;20205;-78
2020/12/03 03:04:29;;;;;;;13.07;8.23;;;5.80;99.90;;;;;;5086430;28;20585;-78
2020/12/03 03:06:55;;;;;;;16.67;8.60;;;5.80;99.90;;;;;;5067127;28;22007;-77
2020/12/03 03:09:22;;;;;;;18.70;8.70;;;5.80;99.90;;;;;;5072474;28;20572;-77
2020/12/03 03:11:50;;;;;;;20.23;8.63;;;5.80;99.90;;;;;;5089906;28;20296;-77
2020/12/03 03:14:17;;;;;;;14.47;7.37;;;5.90;99.90;;;;;;5084522;28;20355;-77
2020/12/03 03:16:43;;;;;;;21.73;8.93;;;5.90;99.90;;;;;;5070883;28;20242;-77
2020/12/03 03:19:13;;;;;;;16.60;8.60;;;5.90;99.90;;;;;;5054509;28;20275;-77
2020/12/03 03:21:39;;;;;;;23.13;9.40;;;5.80;99.90;;;;;;5086554;28;20244;-77
2020/12/03 03:24:06;;;;;;;17.93;8.60;;;5.90;99.90;;;;;;5068123;28;20203;-77
2020/12/03 03:26:32;;;;;;;19.43;8.73;;;5.90;99.90;;;;;;5068065;28;20247;-77
2020/12/03 03:28:58;;;;;;;21.03;8.77;;;5.90;99.90;;;;;;5073644;28;20225;-77
2020/12/03 03:31:25;;;;;;;18.90;8.60;;;5.90;99.90;;;;;;5052323;28;21802;-78
2020/12/03 03:33:51;;;;;;;21.67;8.63;;;5.90;99.90;;;;;;5080003;28;20207;-77
2020/12/03 03:36:18;;;;;;;22.63;9.40;;;5.90;99.90;;;;;;5069642;28;20199;-77
2020/12/03 03:38:44;;;;;;;13.07;7.67;;;5.90;99.90;;;;;;5084592;28;20193;-77
2020/12/03 03:41:11;;;;;;;16.90;7.43;;;5.90;99.90;;;;;;5069338;28;20222;-77
2020/12/03 03:43:37;;;;;;;15.53;7.50;;;6.00;99.90;;;;;;5088413;28;20211;-77
2020/12/03 03:46:05;;;;;;;14.00;7.73;;;6.00;99.90;;;;;;5066459;28;20237;-77
2020/12/03 03:48:31;;;;;;;16.93;8.87;;;6.00;99.90;;;;;;5073395;28;20255;-77
2020/12/03 03:50:58;;;;;;;18.23;9.70;;;6.00;99.90;;;;;;5071478;28;20222;-77
2020/12/03 03:53:25;;;;;;;17.40;9.30;;;6.10;99.90;;;;;;5074113;28;20260;-77
2020/12/03 03:55:51;;;;;;;17.53;8.70;;;6.10;99.90;;;;;;5083008;28;20229;-77
2020/12/03 03:58:19;;;;;;;14.67;9.03;;;6.10;99.90;;;;;;5068924;28;20334;-78
2020/12/03 04:00:47;;;;;;;17.17;9.10;;;6.10;99.90;;;;;;5074804;28;20263;-78
2020/12/03 04:03:17;;;;;;;15.83;8.33;;;6.20;99.90;;;;;;5069012;28;20203;-77
2020/12/03 04:05:45;;;;;;;14.03;7.80;;;6.20;99.90;;;;;;5084120;28;20245;-78
2020/12/03 04:08:14;;;;;;;28.17;9.70;;;6.20;99.90;;;;;;5085939;28;20571;-77
2020/12/03 04:10:41;;;;;;;18.50;8.73;;;6.20;99.90;;;;;;5070024;28;20190;-77
2020/12/03 04:13:08;;;;;;;20.13;8.60;;;6.20;99.90;;;;;;5081863;28;20295;-78
2020/12/03 04:15:34;;;;;;;16.43;8.30;;;6.20;99.90;;;;;;5089173;28;20270;-78
2020/12/03 04:18:01;;;;;;;17.80;8.70;;;6.20;99.90;;;;;;5050831;28;20275;-77
2020/12/03 04:20:27;;;;;;;16.50;9.33;;;6.20;99.90;;;;;;5069819;28;20729;-77
2020/12/03 04:22:54;;;;;;;22.33;10.43;;;6.20;99.90;;;;;;5069015;28;20556;-78
2020/12/03 04:25:21;;;;;;;15.47;9.03;;;6.10;99.90;;;;;;5068527;28;20207;-77
2020/12/03 04:27:47;;;;;;;17.27;9.13;;;6.10;99.90;;;;;;5066824;28;20203;-77
2020/12/03 04:30:14;;;;;;;16.83;8.57;;;6.10;99.90;;;;;;5084726;28;20590;-77
2020/12/03 04:32:40;;;;;;;19.20;8.70;;;6.20;99.90;;;;;;5076363;28;20237;-78
2020/12/03 04:35:08;;;;;;;14.67;8.73;;;6.20;99.90;;;;;;5066808;28;20240;-77
2020/12/03 04:37:35;;;;;;;15.33;9.03;;;6.30;99.90;;;;;;5074827;28;20205;-78
2020/12/03 04:40:03;;;;;;;18.40;8.73;;;6.20;99.90;;;;;;5069604;28;20222;-78
2020/12/03 04:42:32;;;;;;;13.90;7.57;;;6.20;99.90;;;;;;5066598;28;20755;-78
2020/12/03 04:45:05;;;;;;;14.33;8.80;;;6.10;99.90;;;;;;5085848;28;20207;-78
2020/12/03 04:47:35;;;;;;;15.77;9.03;;;6.20;99.90;;;;;;5082896;28;20260;-78
2020/12/03 04:50:26;;;;;;;15.13;8.10;;;6.20;99.90;;;;;;5088306;28;20285;-77
2020/12/03 04:53:11;;;;;;;16.80;7.97;;;6.20;99.90;;;;;;5086247;28;20207;-78
2020/12/03 04:55:53;;;;;;;16.63;7.77;;;6.20;99.90;;;;;;5081224;28;20329;-77
2020/12/03 04:58:49;;;;;;;13.37;7.70;;;6.10;99.90;;;;;;5079806;28;20726;-77
2020/12/03 05:02:09;;;;;;;17.20;7.57;;;6.10;99.90;;;;;;5084073;28;20687;-79
2020/12/03 05:05:02;;;;;;;11.03;7.30;;;6.10;99.90;;;;;;5008957;28;20212;-77
2020/12/03 05:07:30;;;;;;;14.13;7.70;;;6.00;99.90;;;;;;5093123;28;20290;-78
2020/12/03 05:10:04;;;;;;;17.63;8.30;;;6.10;99.90;;;;;;5058951;28;20203;-77
2020/12/03 05:12:36;;;;;;;19.10;8.17;;;6.10;99.90;;;;;;5081056;28;20721;-79
2020/12/03 05:15:23;;;;;;;14.73;8.67;;;6.20;99.90;;;;;;5084366;28;20210;-79
2020/12/03 05:18:17;;;;;;;19.27;9.53;;;6.20;99.90;;;;;;5082868;28;20270;-78
2020/12/03 05:20:52;;;;;;;16.33;8.77;;;6.10;99.90;;;;;;5080805;28;20256;-77
2020/12/03 05:23:29;;;;;;;17.47;9.93;;;6.10;99.90;;;;;;5070206;28;20201;-77
2020/12/03 05:25:57;;;;;;;18.60;10.10;;;6.10;99.90;;;;;;5071147;28;20619;-77
2020/12/03 05:28:46;;;;;;;14.07;8.60;;;6.10;99.90;;;;;;5071058;28;20253;-77
2020/12/03 05:31:18;;;;;;;19.73;8.70;;;6.00;99.90;;;;;;5087519;28;20244;-79
2020/12/03 05:33:45;;;;;;;14.53;8.60;;;6.10;99.90;;;;;;5089680;28;20207;-76
2020/12/03 05:36:39;;;;;;;25.17;10.23;;;6.10;99.90;;;;;;5075571;28;20267;-76
2020/12/03 05:39:13;;;;;;;18.27;9.00;;;6.10;99.90;;;;;;5084757;28;20202;-78
2020/12/03 05:41:47;;;;;;;16.60;9.23;;;6.10;99.90;;;;;;5087086;28;20492;-79
2020/12/03 05:44:38;;;;;;;20.47;8.93;;;6.10;99.90;;;;;;5089146;28;20650;-79
2020/12/03 05:47:20;;;;;;;15.90;8.23;;;6.00;99.90;;;;;;5089324;28;20228;-78
2020/12/03 05:49:49;;;;;;;18.20;9.30;;;6.10;99.90;;;;;;5091362;28;20214;-79
2020/12/03 05:52:19;;;;;;;18.80;9.63;;;6.00;99.90;;;;;;5085842;28;20195;-78
2020/12/03 05:55:07;;;;;;;20.10;9.30;;;6.10;99.90;;;;;;5075744;28;20215;-78
2020/12/03 05:57:43;;;;;;;16.87;9.77;;;6.10;99.90;;;;;;5088432;28;20241;-79
2020/12/03 06:00:13;;;;;;;19.07;9.10;;;6.10;99.90;;;;;;5082052;28;20206;-79
2020/12/03 06:02:45;;;;;;;19.40;8.70;;;6.10;99.90;;;;;;5085617;28;20222;-78
2020/12/03 06:05:14;;;;;;;23.00;9.33;;;6.00;99.90;;;;;;5087244;28;20213;-78
2020/12/03 06:08:01;;;;;;;18.40;10.07;;;6.10;99.90;;;;;;5087055;28;20205;-78
2020/12/03 06:10:39;;;;;;;16.30;9.90;;;6.10;99.90;;;;;;5082954;28;20489;-80
2020/12/03 06:13:27;;;;;;;15.43;8.93;;;6.20;99.90;;;;;;5082270;28;20241;-78
2020/12/03 06:16:00;;;;;;;16.27;9.63;;;6.20;99.90;;;;;;5083229;28;20242;-79
2020/12/03 06:18:42;;;;;;;24.10;9.33;;;6.20;99.90;;;;;;5085227;28;21730;-78
2020/12/03 06:21:29;;;;;;;14.57;8.07;;;6.20;99.90;;;;;;5088629;28;20260;-78
2020/12/03 06:24:26;;;;;;;17.40;8.83;;;6.20;99.90;;;;;;5086549;28;21354;-79
2020/12/03 06:27:20;;;;;;;15.73;8.20;;;6.20;99.90;;;;;;5092184;28;20706;-79
2020/12/03 06:29:55;;;;;;;22.53;10.23;;;6.10;99.90;;;;;;5088420;28;20207;-79
2020/12/03 06:32:30;;;;;;;19.20;9.67;;;6.10;99.90;;;;;;5081628;28;20217;-79
2020/12/03 06:35:21;;;;;;;19.13;10.23;;;6.00;99.90;;;;;;5087825;28;20303;-79
2020/12/03 06:38:11;;;;;;;18.57;10.07;;;6.10;99.90;;;;;;5088459;28;21015;-80
2020/12/03 06:40:43;;;;;;;22.20;11.87;;;6.00;99.90;;;;;;5070389;28;20191;-80
2020/12/03 06:43:45;;;;;;;24.60;12.47;;;6.00;99.90;;;;;;5090818;28;20604;-77
2020/12/03 06:46:36;;;;;;;21.57;11.20;;;6.10;99.90;;;;;;5074827;28;22145;-78
2020/12/03 06:49:11;;;;;;;23.13;11.20;;;6.00;99.90;;;;;;5083017;28;20202;-77
2020/12/03 06:51:37;;;;;;;21.33;10.70;;;6.00;99.90;;;;;;5086112;28;20350;-78
2020/12/03 06:54:30;;;;;;;16.90;9.57;;;6.00;99.90;;;;;;5090426;28;20210;-77
2020/12/03 06:57:19;;;;;;;23.00;9.57;;;6.00;99.90;;;;;;5088324;28;20211;-77
2020/12/03 07:00:05;;;;;;;16.53;10.07;;;6.10;99.90;;;;;;5085312;28;20278;-77
2020/12/03 07:02:40;;;;;;;15.33;9.53;;;6.10;99.90;;;;;;5088228;28;20539;-78
2020/12/03 07:05:57;;;;;;;17.17;8.87;;;6.10;99.90;;;;;;5085842;28;20206;-76
2020/12/03 07:08:52;;;;;;;22.03;8.70;;;6.00;99.90;;;;;;5084268;28;20226;-77
2020/12/03 07:11:32;;;;;;;11.10;7.53;;;6.00;99.90;;;;;;5079697;28;20280;-78
2020/12/03 07:14:23;;;;;;;14.07;8.10;;;6.00;99.90;;;;;;5063725;28;20552;-78
2020/12/03 07:17:11;;;;;;;13.27;7.90;;;6.00;99.90;;;;;;5059400;28;20916;-79
2020/12/03 07:19:55;;;;;;;12.10;7.87;;;6.00;99.90;;;;;;5073388;28;20199;-79
2020/12/03 07:22:38;;;;;;;15.83;8.70;;;6.10;99.90;;;;;;5064008;28;20195;-81
2020/12/03 07:25:06;;;;;;;20.67;8.07;;;6.00;99.90;;;;;;5090722;28;20341;-82
2020/12/03 07:28:17;;;;;;;19.00;8.87;;;5.90;99.90;;;;;;5071670;28;20278;-80
2020/12/03 07:31:00;;;;;;;17.73;8.40;;;5.90;99.90;;;;;;4991699;28;20193;-80
2020/12/03 07:33:47;;;;;;;20.47;9.67;;;5.90;99.90;;;;;;4994930;28;20291;-79
2020/12/03 07:36:29;;;;;;;16.53;9.13;;;5.90;99.90;;;;;;4991367;28;20214;-79
2020/12/03 07:39:02;;;;;;;17.67;8.83;;;6.00;99.90;;;;;;4989668;28;20216;-75
2020/12/03 07:41:38;;;;;;;28.37;9.77;;;5.90;99.90;;;;;;5006829;28;20299;-76
2020/12/03 07:44:37;;;;;;;15.80;8.70;;;5.90;99.90;;;;;;5009077;28;20200;-75
2020/12/03 07:47:24;;;;;;;20.40;8.03;;;5.90;99.90;;;;;;4995593;28;20213;-75
2020/12/03 07:49:54;;;;;;;24.70;9.30;;;6.00;99.90;;;;;;5000927;28;20205;-76
2020/12/03 07:52:28;;;;;;;14.97;8.97;;;6.00;99.90;;;;;;5005960;28;20210;-77
2020/12/03 07:55:27;;;;;;;15.40;8.33;;;6.20;99.90;;;;;;4988582;28;20247;-76
2020/12/03 07:57:56;;;;;;;15.50;8.30;;;6.10;99.90;;;;;;4990130;28;20243;-75
2020/12/03 08:00:26;;;;;;;16.13;9.07;;;6.10;99.90;;;;;;5009998;28;20304;-77
2020/12/03 08:03:00;;;;;;;18.63;8.97;;;6.10;99.90;;;;;;5062097;28;20221;-75
2020/12/03 08:05:52;;;;;;;18.23;9.40;;;6.00;99.90;;;;;;5051014;28;20251;-76
2020/12/03 08:08:24;;;;;;;17.00;8.20;;;6.00;99.90;;;;;;5056262;28;20206;-76
2020/12/03 08:10:52;;;;;;;17.03;9.70;;;6.10;99.90;;;;;;5078197;28;20971;-75
2020/12/03 08:13:28;;;;;;;15.50;8.27;;;6.10;99.90;;;;;;5061587;28;20314;-75
2020/12/03 08:16:05;;;;;;;16.97;8.17;;;6.00;99.90;;;;;;5054125;28;20209;-75
2020/12/03 08:19:08;;;;;;;28.30;9.10;;;6.00;99.90;;;;;;5065828;28;20583;-76
2020/12/03 08:21:40;;;;;;;28.53;9.53;;;6.10;99.90;;;;;;5037318;28;20299;-75
2020/12/03 08:24:17;;;;;;;18.43;6.90;;;6.10;99.90;;;;;;5088174;28;20306;-74
2020/12/03 08:26:44;;;;;;;18.63;8.27;;;6.10;99.90;;;;;;5059418;28;20202;-75
2020/12/03 08:29:36;;;;;;;13.83;8.77;;;6.20;99.90;;;;;;5052725;28;20213;-75
2020/12/03 08:32:02;;;;;;;16.17;8.10;;;6.10;99.90;;;;;;5067573;28;20262;-74
2020/12/03 08:34:33;;;;;;;16.67;8.13;;;6.10;99.90;;;;;;5067133;28;20263;-75
2020/12/03 08:37:05;;;;;;;26.27;8.93;;;6.20;99.90;;;;;;5050516;28;20199;-75
2020/12/03 08:39:32;;;;;;;18.83;7.50;;;6.10;99.90;;;;;;5082368;28;20572;-75
2020/12/03 08:42:00;;;;;;;17.20;8.03;;;6.20;99.90;;;;;;5051358;28;20211;-77
2020/12/03 08:44:28;;;;;;;17.07;7.73;;;6.20;99.90;;;;;;5080591;28;20219;-75
2020/12/03 08:47:01;;;;;;;17.70;7.80;;;6.10;99.90;;;;;;5066120;28;20210;-75
2020/12/03 08:49:28;;;;;;;15.80;8.10;;;6.10;99.90;;;;;;5048367;28;20543;-74
2020/12/03 08:51:58;;;;;;;11.87;6.70;;;6.10;99.90;;;;;;5048813;28;20212;-75
2020/12/03 08:54:29;;;;;;;14.63;7.03;;;6.10;99.90;;;;;;5050132;28;20218;-74
2020/12/03 08:57:13;;;;;;;13.87;7.47;;;6.10;99.90;;;;;;5064404;28;20259;-75
2020/12/03 08:59:50;;;;;;;10.73;6.70;;;6.10;99.90;;;;;;5066617;28;20290;-74
2020/12/03 09:02:18;;;;;;;15.17;7.57;;;6.20;99.90;;;;;;5066329;28;20198;-75
2020/12/03 09:04:49;;;;;;;13.83;6.73;;;6.10;99.90;;;;;;5064113;28;20208;-74
2020/12/03 09:07:18;;;;;;;15.37;7.47;;;6.10;99.90;;;;;;5086714;28;20193;-75
2020/12/03 09:09:47;;;;;;;16.27;8.10;;;6.00;99.90;;;;;;5047471;28;20241;-75
2020/12/03 09:12:19;;;;;;;18.87;8.37;;;6.20;99.90;;;;;;5054525;28;20755;-74
2020/12/03 09:14:49;;;;;;;12.63;8.30;;;6.10;99.90;;;;;;5077936;28;20222;-75
2020/12/03 09:17:18;;;;;;;20.30;8.43;;;6.00;99.90;;;;;;5065366;28;20199;-75
2020/12/03 09:19:45;;;;;;;21.50;9.40;;;6.10;99.90;;;;;;5053595;28;20203;-76
2020/12/03 09:22:14;;;;;;;15.53;8.60;;;6.20;99.90;;;;;;5063768;28;20258;-74
2020/12/03 09:24:41;;;;;;;17.03;9.03;;;6.20;99.90;;;;;;5061138;28;20226;-75
2020/12/03 09:27:10;;;;;;;18.37;8.73;;;6.10;99.90;;;;;;5080843;28;20281;-74
2020/12/03 09:29:36;;;;;;;18.27;8.93;;;6.10;99.90;;;;;;5070607;28;20274;-75
2020/12/03 09:32:15;;;;;;;16.43;9.07;;;6.10;99.90;;;;;;5059816;28;20205;-75
2020/12/03 09:34:44;;;;;;;15.73;9.23;;;6.20;99.90;;;;;;5080640;28;20666;-73
2020/12/03 09:37:10;;;;;;;19.47;9.63;;;6.20;99.90;;;;;;5062049;28;20195;-74
2020/12/03 09:39:37;;;;;;;22.43;10.07;;;6.20;99.90;;;;;;5035701;28;20200;-75
2020/12/03 09:42:10;;;;;;;16.40;9.13;;;6.10;99.90;;;;;;5045570;28;20291;-76
2020/12/03 09:44:37;;;;;;;19.27;9.73;;;6.20;99.90;;;;;;5055358;28;20257;-75
2020/12/03 09:47:09;;;;;;;19.63;10.33;;;6.20;99.90;;;;;;5057848;28;20266;-76
2020/12/03 09:49:39;;;;;;;19.83;10.13;;;6.30;99.90;;;;;;5070065;28;21264;-76
2020/12/03 09:52:08;;;;;;;19.47;9.23;;;6.20;99.90;;;;;;5071021;28;20236;-76
2020/12/03 09:54:35;;;;;;;20.73;10.43;;;6.30;99.90;;;;;;5041532;28;20227;-75
2020/12/03 09:57:02;;;;;;;19.97;9.77;;;6.30;99.90;;;;;;5051719;28;20640;-77
2020/12/03 09:59:28;;;;;;;18.53;10.30;;;6.30;99.90;;;;;;5054019;28;20199;-75
2020/12/03 10:02:12;;;;;;;24.40;10.73;;;6.30;99.90;;;;;;5038723;28;20958;-75
2020/12/03 10:05:13;;;;;;;21.27;11.77;;;6.20;99.90;;;;;;5066881;28;21114;-75
2020/12/03 10:08:17;;;;;;;21.40;9.57;;;6.30;99.90;;;;;;5069170;28;20300;-75
2020/12/03 10:11:08;;;;;;;17.93;10.03;;;6.30;99.90;;;;;;5078940;28;20277;-75
2020/12/03 10:14:04;;;;;;;16.80;9.83;;;6.40;99.90;;;;;;5063696;28;20709;-75
2020/12/03 10:16:35;;;;;;;19.60;10.03;;;6.50;99.90;;;;;;5092430;28;20276;-75
2020/12/03 10:19:05;;;;;;;24.20;10.77;;;6.40;99.90;;;;;;5066966;28;20198;-75
2020/12/03 10:21:40;;;;;;;19.17;10.27;;;6.40;99.90;;;;;;5051437;28;20257;-76
2020/12/03 10:24:19;;;;;;;22.83;9.57;;;6.40;99.90;;;;;;5086930;28;20220;-75
2020/12/03 10:27:09;;;;;;;18.30;10.07;;;6.40;99.90;;;;;;5080982;28;20204;-75
2020/12/03 10:30:00;;;;;;;23.37;10.73;;;6.40;99.90;;;;;;5066530;28;20258;-75
2020/12/03 10:32:28;;;;;;;17.27;9.07;;;6.30;99.90;;;;;;5067663;28;20208;-76
2020/12/03 10:34:55;;;;;;;18.40;9.67;;;6.40;99.90;;;;;;5070724;28;20212;-75
2020/12/03 10:37:25;;;;;;;17.97;9.60;;;6.40;99.90;;;;;;5071886;28;20255;-75
2020/12/03 10:39:55;;;;;;;19.20;10.10;;;6.40;99.90;;;;;;5092323;28;20193;-76
2020/12/03 10:42:36;;;;;;;18.13;9.87;;;6.30;99.90;;;;;;5071022;28;20633;-76
2020/12/03 10:45:13;;;;;;;18.07;8.60;;;6.40;99.90;;;;;;5086875;28;20196;-74
2020/12/03 10:47:48;;;;;;;14.67;8.17;;;6.40;99.90;;;;;;5067314;28;20611;-75
2020/12/03 10:50:17;;;;;;;14.03;8.47;;;6.30;99.90;;;;;;5070977;28;20513;-74
2020/12/03 10:52:44;;;;;;;14.93;7.80;;;6.40;99.90;;;;;;5087714;28;20216;-76
2020/12/03 10:55:20;;;;;;;13.73;8.40;;;6.30;99.90;;;;;;5049784;28;20244;-77
2020/12/03 10:58:00;;;;;;;13.00;8.50;;;6.40;99.90;;;;;;5063187;28;20217;-74
2020/12/03 11:00:28;;;;;;;15.67;7.87;;;6.40;99.90;;;;;;5053994;28;20229;-75
2020/12/03 11:03:00;;;;;;;14.20;8.33;;;6.40;99.90;;;;;;5086597;28;20602;-74
2020/12/03 11:05:27;;;;;;;14.63;8.07;;;6.40;99.90;;;;;;5064607;28;20579;-74
2020/12/03 11:07:55;;;;;;;13.63;7.67;;;6.30;99.90;;;;;;5067091;28;20245;-74
2020/12/03 11:10:23;;;;;;;13.00;6.87;;;6.30;99.90;;;;;;5063511;28;20361;-75
2020/12/03 11:12:55;;;;;;;13.20;8.20;;;6.40;99.90;;;;;;5041647;28;20291;-75
2020/12/03 11:15:24;;;;;;;16.10;8.10;;;6.40;99.90;;;;;;5042417;28;20218;-75
2020/12/03 11:18:05;;;;;;;13.60;8.53;;;6.40;99.90;;;;;;5057464;28;20208;-73
2020/12/03 11:21:02;;;;;;;12.97;6.77;;;6.40;99.90;;;;;;5064264;28;20242;-73
2020/12/03 11:23:30;;;;;;;12.60;7.57;;;6.30;99.90;;;;;;5043115;28;20265;-74
2020/12/03 11:26:04;;;;;;;12.73;7.03;;;6.40;99.90;;;;;;5048420;28;20199;-74
2020/12/03 11:28:36;;;;;;;16.40;7.33;;;6.40;99.90;;;;;;5046557;28;20198;-72
2020/12/03 11:31:05;;;;;;;12.07;7.33;;;6.40;99.90;;;;;;5047412;28;20284;-74
2020/12/03 11:33:41;;;;;;;17.23;8.47;;;6.40;99.90;;;;;;5034980;28;20234;-71
2020/12/03 11:36:15;;;;;;;12.97;7.77;;;6.40;99.90;;;;;;5030273;28;20224;-73
2020/12/03 11:38:53;;;;;;;12.03;8.00;;;6.40;99.90;;;;;;5044274;28;20246;-75
2020/12/03 11:42:15;;;;;;;11.90;8.43;;;6.40;99.90;;;;;;5046260;28;20236;-74
2020/12/03 11:44:31;;;;;;;12.73;7.93;;;6.50;99.90;;;;;;5048051;28;20629;-72
2020/12/03 11:50:18;;;;;;;14.40;8.43;;;6.30;99.90;;;;;;5050541;28;20217;-72
2020/12/03 11:52:45;;;;;;;12.13;8.30;;;6.50;99.90;;;;;;5048901;28;21445;-75
2020/12/03 11:55:23;;;;;;;13.30;7.17;;;6.40;99.90;;;;;;5062970;28;20274;-72
2020/12/03 11:57:50;;;;;;;9.40;7.03;;;6.40;99.90;;;;;;5060242;28;20604;-74
2020/12/03 12:00:21;;;;;;;12.43;7.43;;;6.40;99.90;;;;;;5051248;28;20713;-73
2020/12/03 12:02:55;;;;;;;12.47;7.43;;;6.50;99.90;;;;;;5059584;28;20224;-74
2020/12/03 12:10:41;;;;;;;9.70;6.50;;;6.40;99.90;;;;;;5058472;28;20209;-73
2020/12/03 12:13:07;;;;;;;11.83;5.67;;;6.40;99.90;;;;;;5073657;28;20299;-72
2020/12/03 12:15:33;;;;;;;8.37;5.93;;;6.40;99.90;;;;;;5060256;28;20207;-73
2020/12/03 12:18:00;;;;;;;8.77;5.83;;;6.30;99.90;;;;;;5063116;28;20242;-74
2020/12/03 12:20:26;;;;;;;9.60;5.97;;;6.40;99.90;;;;;;5081841;28;20282;-73
2020/12/03 12:22:53;;;;;;;9.30;6.13;;;6.40;99.90;;;;;;5062928;28;20595;-73
2020/12/03 12:25:19;;;;;;;8.33;5.23;;;6.50;99.90;;;;;;5047410;28;20674;-72
2020/12/03 12:27:47;;;;;;;8.87;5.70;;;6.40;99.90;;;;;;5060595;28;20269;-73
2020/12/03 12:30:14;;;;;;;9.37;5.97;;;6.40;99.90;;;;;;5049529;28;20238;-73
2020/12/03 12:32:40;;;;;;;9.17;6.03;;;6.40;99.90;;;;;;5048300;28;20253;-76
2020/12/03 12:35:07;;;;;;;10.70;5.93;;;6.40;99.90;;;;;;5061233;28;20277;-74
2020/12/03 12:37:33;;;;;;;10.70;6.80;;;6.40;99.90;;;;;;5062930;28;20856;-74
2020/12/03 12:40:00;;;;;;;7.50;5.57;;;6.40;99.90;;;;;;5041572;28;20264;-74
2020/12/03 12:42:27;;;;;;;8.20;5.70;;;6.40;99.90;;;;;;5075907;28;20645;-72
2020/12/03 12:44:54;;;;;;;8.33;6.07;;;6.40;99.90;;;;;;5073403;28;20213;-73
2020/12/03 12:47:21;;;;;;;7.33;5.77;;;6.50;99.90;;;;;;5079345;28;20666;-71
2020/12/03 12:49:49;;;;;;;8.60;5.93;;;6.50;99.90;;;;;;5063319;28;20205;-74
2020/12/03 12:52:15;;;;;;;6.10;4.30;;;6.40;99.90;;;;;;5061062;28;20571;-72
2020/12/03 12:54:42;;;;;;;5.33;3.77;;;6.30;99.90;;;;;;5044796;28;20240;-73
2020/12/03 12:57:17;;;;;;;10.63;4.43;;;6.20;99.90;;;;;;5064654;28;20326;-74
2020/12/03 12:59:44;;;;;;;5.63;4.20;;;6.20;99.90;;;;;;5062798;28;20196;-73
2020/12/03 13:02:11;;;;;;;5.83;4.03;;;6.20;99.90;;;;;;5084490;28;20242;-73
2020/12/03 13:04:37;;;;;;;6.00;4.37;;;6.30;99.90;;;;;;5057610;28;20626;-73
2020/12/03 13:07:08;;;;;;;7.73;3.70;;;6.20;99.90;;;;;;5082845;28;20191;-72
2020/12/03 13:09:34;;;;;;;9.03;3.93;;;6.30;99.90;;;;;;5053261;28;20815;-74
2020/12/03 13:12:01;;;;;;;4.10;2.90;;;6.20;99.90;;;;;;5081751;28;20237;-73
2020/12/03 13:14:28;;;;;;;6.83;3.10;;;6.10;99.90;;;;;;5084806;28;20294;-72
2020/12/03 13:16:55;;;;;;;4.83;3.50;;;6.10;99.90;;;;;;5079086;28;20216;-73
2020/12/03 13:19:22;;;;;;;6.50;3.40;;;6.10;99.90;;;;;;5083305;28;20203;-73
2020/12/03 13:21:49;;;;;;;3.07;2.77;;;6.10;99.90;;;;;;5081080;28;20195;-75
2020/12/03 13:24:15;;;;;;;4.37;3.50;;;6.30;99.90;;;;;;5077595;28;20284;-74